createdAt,value
2018-09-29T00:02:11.464Z,8.40
2018-09-29T00:04:39.729Z,8.30
2018-09-29T00:07:08.290Z,8.40
2018-09-29T00:09:36.531Z,8.30
2018-09-29T00:12:04.758Z,8.30
2018-09-29T00:14:32.965Z,8.30
2018-09-29T00:17:01.192Z,8.20
2018-09-29T00:19:29.408Z,8.20
2018-09-29T00:21:57.617Z,8.20
2018-09-29T00:24:25.798Z,8.40
2018-09-29T00:26:54.101Z,8.30
2018-09-29T00:29:22.282Z,8.20
2018-09-29T00:31:50.519Z,8.20
2018-09-29T00:34:18.835Z,8.20
2018-09-29T00:36:47.018Z,8.20
2018-09-29T00:39:15.256Z,8.20
2018-09-29T00:41:43.613Z,8.20
2018-09-29T00:44:11.865Z,8.10
2018-09-29T00:46:40.093Z,8.00
2018-09-29T00:49:08.298Z,8.00
2018-09-29T00:51:36.557Z,7.90
2018-09-29T00:54:04.753Z,7.90
2018-09-29T00:56:32.968Z,7.80
2018-09-29T00:59:01.184Z,7.80
2018-09-29T01:01:29.381Z,7.80
2018-09-29T01:03:57.852Z,7.70
2018-09-29T01:06:26.072Z,7.80
2018-09-29T01:08:54.279Z,7.80
2018-09-29T01:11:22.464Z,7.80
2018-09-29T01:13:50.721Z,7.70
2018-09-29T01:16:18.993Z,7.70
2018-09-29T01:18:47.206Z,7.60
2018-09-29T01:21:15.467Z,7.60
2018-09-29T01:23:43.698Z,7.60
2018-09-29T01:26:11.980Z,7.60
2018-09-29T01:28:40.189Z,7.50
2018-09-29T01:31:08.708Z,7.50
2018-09-29T01:33:36.938Z,7.50
2018-09-29T01:36:05.873Z,7.50
2018-09-29T01:38:34.097Z,7.40
2018-09-29T01:41:02.306Z,7.40
2018-09-29T01:43:30.539Z,7.30
2018-09-29T01:45:58.883Z,7.40
2018-09-29T01:48:27.080Z,7.40
2018-09-29T01:50:55.300Z,7.30
2018-09-29T01:53:23.512Z,7.30
2018-09-29T01:55:51.743Z,7.20
2018-09-29T01:58:19.941Z,7.30
2018-09-29T02:00:48.197Z,7.20
2018-09-29T02:03:16.362Z,7.30
2018-09-29T02:05:44.586Z,7.20
2018-09-29T02:08:12.980Z,7.20
2018-09-29T02:10:41.216Z,7.20
2018-09-29T02:13:09.449Z,7.10
2018-09-29T02:15:37.665Z,7.20
2018-09-29T02:18:05.884Z,7.20
2018-09-29T02:20:35.066Z,7.20
2018-09-29T02:23:03.275Z,7.10
2018-09-29T02:25:31.448Z,7.10
2018-09-29T02:27:59.653Z,7.00
2018-09-29T02:30:27.918Z,7.00
2018-09-29T02:32:56.194Z,7.00
2018-09-29T02:35:24.426Z,7.00
2018-09-29T02:37:52.621Z,6.90
2018-09-29T02:40:20.800Z,7.00
2018-09-29T02:42:48.961Z,6.90
2018-09-29T02:45:17.270Z,6.80
2018-09-29T02:47:45.558Z,6.80
2018-09-29T02:50:13.932Z,6.80
2018-09-29T02:52:42.161Z,6.70
2018-09-29T02:55:10.354Z,6.80
2018-09-29T02:57:38.542Z,6.80
2018-09-29T03:00:06.769Z,6.70
2018-09-29T03:02:34.960Z,6.70
2018-09-29T03:05:03.167Z,6.60
2018-09-29T03:07:31.622Z,6.50
2018-09-29T03:09:59.845Z,6.60
2018-09-29T03:12:28.094Z,6.60
2018-09-29T03:14:56.292Z,6.60
2018-09-29T03:17:24.506Z,6.60
2018-09-29T03:19:52.724Z,6.50
2018-09-29T03:22:20.904Z,6.50
2018-09-29T03:24:49.125Z,6.50
2018-09-29T03:27:17.340Z,6.50
2018-09-29T03:29:45.600Z,6.50
2018-09-29T03:32:13.834Z,6.40
2018-09-29T03:34:42.044Z,6.40
2018-09-29T03:37:10.263Z,6.40
2018-09-29T03:39:38.552Z,6.40
2018-09-29T03:42:06.774Z,6.40
2018-09-29T03:44:34.964Z,6.50
2018-09-29T03:47:03.213Z,6.50
2018-09-29T03:49:31.416Z,6.50
2018-09-29T03:51:59.677Z,6.50
2018-09-29T03:54:28.153Z,6.50
2018-09-29T03:56:56.366Z,6.50
2018-09-29T03:59:24.564Z,6.50
2018-09-29T04:01:52.795Z,6.50
2018-09-29T04:04:21.007Z,6.50
2018-09-29T04:06:49.238Z,6.40
2018-09-29T04:09:17.456Z,6.40
2018-09-29T04:11:45.615Z,6.40
2018-09-29T04:14:13.845Z,6.40
2018-09-29T04:16:42.056Z,6.50
2018-09-29T04:19:10.256Z,6.40
2018-09-29T04:21:48.977Z,6.30
2018-09-29T04:24:18.051Z,6.40
2018-09-29T04:26:46.277Z,6.40
2018-09-29T04:29:16.172Z,6.30
2018-09-29T04:31:44.636Z,6.30
2018-09-29T04:34:13.636Z,6.20
2018-09-29T04:36:42.372Z,6.30
2018-09-29T04:39:12.312Z,6.30
2018-09-29T04:41:40.492Z,6.30
2018-09-29T04:44:09.519Z,6.20
2018-09-29T04:46:37.839Z,6.20
2018-09-29T04:49:06.030Z,6.10
2018-09-29T04:51:34.260Z,6.10
2018-09-29T04:54:02.699Z,6.10
2018-09-29T04:56:31.395Z,6.10
2018-09-29T04:58:59.796Z,6.00
2018-09-29T05:01:27.973Z,6.10
2018-09-29T05:03:56.311Z,6.10
2018-09-29T05:06:24.800Z,6.10
2018-09-29T05:08:52.966Z,6.10
2018-09-29T05:11:21.335Z,6.00
2018-09-29T05:13:49.973Z,6.10
2018-09-29T05:16:18.108Z,6.00
2018-09-29T05:18:46.412Z,5.90
2018-09-29T05:21:14.593Z,5.90
2018-09-29T05:23:42.825Z,5.90
2018-09-29T05:26:11.381Z,5.90
2018-09-29T05:28:39.634Z,6.00
2018-09-29T05:31:07.821Z,6.00
2018-09-29T05:33:36.210Z,6.00
2018-09-29T05:36:04.436Z,5.90
2018-09-29T05:38:32.755Z,5.90
2018-09-29T05:41:01.125Z,5.90
2018-09-29T05:43:29.389Z,5.90
2018-09-29T05:45:57.563Z,5.90
2018-09-29T05:48:26.170Z,6.00
2018-09-29T05:50:54.364Z,5.90
2018-09-29T05:53:22.555Z,5.90
2018-09-29T05:55:51.021Z,5.90
2018-09-29T05:58:19.216Z,6.00
2018-09-29T06:00:47.517Z,6.00
2018-09-29T06:03:15.757Z,6.00
2018-09-29T06:05:44.036Z,6.00
2018-09-29T06:08:12.211Z,6.10
2018-09-29T06:10:40.445Z,6.20
2018-09-29T06:13:08.662Z,6.20
2018-09-29T06:15:36.905Z,6.30
2018-09-29T06:18:05.303Z,6.30
2018-09-29T06:20:33.573Z,6.30
2018-09-29T06:23:01.801Z,6.40
2018-09-29T06:25:30.017Z,6.40
2018-09-29T06:27:58.297Z,6.50
2018-09-29T06:30:26.487Z,6.60
2018-09-29T06:32:54.794Z,6.60
2018-09-29T06:35:23.002Z,6.70
2018-09-29T06:37:51.321Z,6.70
2018-09-29T06:40:19.529Z,6.80
2018-09-29T06:42:47.929Z,6.90
2018-09-29T06:45:16.168Z,7.00
2018-09-29T06:47:44.449Z,7.00
2018-09-29T06:50:12.665Z,7.10
2018-09-29T06:52:40.925Z,7.20
2018-09-29T06:55:09.420Z,7.30
2018-09-29T06:57:37.661Z,7.40
2018-09-29T07:00:05.925Z,7.40
2018-09-29T07:02:34.167Z,7.50
2018-09-29T07:05:02.478Z,7.60
2018-09-29T07:07:30.812Z,7.70
2018-09-29T07:09:59.039Z,7.80
2018-09-29T07:12:27.265Z,7.80
2018-09-29T07:14:55.494Z,8.00
2018-09-29T07:17:23.740Z,8.00
2018-09-29T07:19:51.971Z,8.00
2018-09-29T07:22:20.153Z,8.10
2018-09-29T07:24:48.414Z,8.10
2018-09-29T07:27:16.594Z,8.10
2018-09-29T07:29:44.851Z,8.20
2018-09-29T07:32:13.181Z,8.30
2018-09-29T07:34:41.421Z,8.30
2018-09-29T07:37:09.813Z,8.40
2018-09-29T07:39:38.113Z,8.50
2018-09-29T07:42:06.746Z,8.50
2018-09-29T07:44:34.993Z,8.60
2018-09-29T07:47:03.410Z,8.70
2018-09-29T07:49:31.672Z,8.70
2018-09-29T07:52:00.414Z,8.70
2018-09-29T07:54:28.716Z,8.80
2018-09-29T07:56:56.976Z,8.90
2018-09-29T07:59:25.878Z,9.00
2018-09-29T08:01:54.081Z,9.10
2018-09-29T08:04:22.310Z,9.20
2018-09-29T08:06:50.686Z,9.40
2018-09-29T08:09:19.204Z,9.60
2018-09-29T08:11:47.549Z,9.50
2018-09-29T08:14:15.834Z,9.60
2018-09-29T08:16:44.096Z,9.70
2018-09-29T08:19:12.364Z,9.70
2018-09-29T08:21:42.612Z,9.90
2018-09-29T08:24:10.940Z,9.90
2018-09-29T08:26:39.475Z,10.10
2018-09-29T08:29:07.688Z,10.30
2018-09-29T08:31:35.994Z,10.40
2018-09-29T08:34:04.401Z,10.50
2018-09-29T08:36:32.677Z,10.20
2018-09-29T08:39:00.999Z,10.20
2018-09-29T08:41:29.440Z,10.40
2018-09-29T08:43:57.717Z,10.40
2018-09-29T08:46:26.033Z,10.60
2018-09-29T08:48:54.747Z,10.50
2018-09-29T08:51:23.156Z,10.40
2018-09-29T08:53:51.433Z,10.60
2018-09-29T08:56:19.696Z,10.80
2018-09-29T08:58:48.053Z,10.80
2018-09-29T09:01:16.621Z,10.80
2018-09-29T09:03:45.180Z,10.80
2018-09-29T09:06:13.461Z,11.10
2018-09-29T09:08:41.732Z,11.20
2018-09-29T09:11:09.978Z,11.20
2018-09-29T09:13:38.224Z,11.30
2018-09-29T09:16:06.722Z,11.40
2018-09-29T09:18:34.991Z,11.50
2018-09-29T09:21:03.356Z,11.70
2018-09-29T09:23:32.830Z,11.80
2018-09-29T09:26:01.145Z,11.90
2018-09-29T09:28:29.557Z,12.00
2018-09-29T09:30:57.794Z,12.00
2018-09-29T09:33:26.283Z,12.00
2018-09-29T09:35:54.579Z,12.20
2018-09-29T09:38:22.845Z,12.10
2018-09-29T09:40:51.176Z,12.20
2018-09-29T09:43:19.522Z,12.40
2018-09-29T09:45:47.746Z,12.50
2018-09-29T09:48:16.043Z,12.40
2018-09-29T09:50:44.325Z,12.30
2018-09-29T09:53:12.521Z,12.20
2018-09-29T09:55:40.865Z,12.50
2018-09-29T09:58:09.124Z,12.50
2018-09-29T10:00:42.879Z,12.60
2018-09-29T10:03:16.460Z,12.60
2018-09-29T10:05:44.725Z,12.80
2018-09-29T10:08:13.027Z,13.00
2018-09-29T10:10:41.465Z,12.90
2018-09-29T10:13:09.733Z,12.90
2018-09-29T10:15:37.967Z,12.80
2018-09-29T10:18:06.992Z,12.70
2018-09-29T10:20:35.385Z,12.90
2018-09-29T10:23:03.754Z,13.10
2018-09-29T10:25:32.183Z,13.10
2018-09-29T10:28:00.518Z,13.20
2018-09-29T10:30:28.934Z,13.40
2018-09-29T10:32:57.175Z,13.30
2018-09-29T10:35:25.549Z,13.50
2018-09-29T10:37:53.833Z,13.50
2018-09-29T10:40:22.038Z,13.70
2018-09-29T10:42:50.407Z,13.90
2018-09-29T10:45:18.721Z,13.70
2018-09-29T10:47:46.964Z,13.50
2018-09-29T10:50:15.269Z,13.60
2018-09-29T10:52:43.721Z,13.80
2018-09-29T10:55:12.030Z,13.80
2018-09-29T10:57:40.447Z,14.00
2018-09-29T11:00:08.754Z,14.10
2018-09-29T11:02:37.105Z,13.80
2018-09-29T11:05:05.345Z,13.60
2018-09-29T11:07:33.614Z,13.60
2018-09-29T11:10:01.865Z,14.00
2018-09-29T11:12:30.105Z,14.20
2018-09-29T11:14:58.319Z,14.10
2018-09-29T11:17:26.722Z,14.10
2018-09-29T11:19:55.042Z,13.70
2018-09-29T11:22:23.468Z,13.60
2018-09-29T11:24:51.802Z,14.00
2018-09-29T11:27:20.228Z,14.30
2018-09-29T11:29:48.465Z,14.50
2018-09-29T11:32:16.796Z,14.60
2018-09-29T11:34:45.072Z,14.60
2018-09-29T11:37:13.344Z,14.70
2018-09-29T11:39:41.696Z,14.70
2018-09-29T11:42:09.959Z,14.40
2018-09-29T11:44:38.261Z,14.10
2018-09-29T11:47:06.535Z,14.40
2018-09-29T11:49:34.813Z,14.60
2018-09-29T11:52:03.091Z,14.90
2018-09-29T11:54:31.318Z,15.00
2018-09-29T11:56:59.633Z,15.00
2018-09-29T11:59:27.936Z,15.30
2018-09-29T12:01:56.485Z,15.40
2018-09-29T12:04:24.656Z,15.40
2018-09-29T12:06:53.537Z,15.50
2018-09-29T12:09:22.260Z,15.40
2018-09-29T12:11:50.780Z,15.20
2018-09-29T12:14:19.016Z,15.20
2018-09-29T12:16:47.259Z,15.40
2018-09-29T12:19:15.456Z,15.20
2018-09-29T12:21:43.918Z,15.00
2018-09-29T12:24:12.180Z,15.00
2018-09-29T12:26:40.420Z,14.50
2018-09-29T12:29:08.717Z,14.40
2018-09-29T12:31:36.977Z,14.60
2018-09-29T12:34:05.229Z,15.00
2018-09-29T12:36:33.404Z,15.40
2018-09-29T12:39:01.773Z,15.50
2018-09-29T12:41:30.175Z,15.60
2018-09-29T12:43:58.508Z,15.40
2018-09-29T12:46:26.732Z,15.30
2018-09-29T12:48:54.979Z,15.40
2018-09-29T12:51:23.900Z,15.60
2018-09-29T12:53:52.126Z,15.90
2018-09-29T12:56:20.512Z,16.20
2018-09-29T12:58:48.785Z,16.20
2018-09-29T13:01:17.112Z,16.20
2018-09-29T13:03:45.417Z,15.90
2018-09-29T13:06:13.778Z,16.00
2018-09-29T13:08:42.077Z,16.20
2018-09-29T13:11:10.282Z,16.10
2018-09-29T13:13:38.489Z,15.60
2018-09-29T13:16:06.679Z,15.30
2018-09-29T13:18:35.066Z,15.60
2018-09-29T13:21:03.282Z,15.90
2018-09-29T13:23:31.540Z,15.90
2018-09-29T13:25:59.792Z,16.10
2018-09-29T13:28:28.058Z,16.10
2018-09-29T13:30:56.364Z,16.00
2018-09-29T13:33:24.656Z,16.20
2018-09-29T13:35:52.862Z,16.40
2018-09-29T13:38:21.088Z,16.70
2018-09-29T13:40:49.416Z,16.80
2018-09-29T13:43:17.638Z,16.40
2018-09-29T13:45:45.909Z,16.50
2018-09-29T13:48:14.201Z,16.50
2018-09-29T13:50:42.428Z,16.40
2018-09-29T13:53:10.658Z,16.20
2018-09-29T13:55:39.120Z,16.40
2018-09-29T13:58:08.405Z,16.30
2018-09-29T14:00:36.636Z,16.50
2018-09-29T14:03:04.874Z,16.30
2018-09-29T14:05:33.144Z,16.30
2018-09-29T14:08:01.381Z,16.30
2018-09-29T14:10:29.649Z,16.40
2018-09-29T14:12:57.874Z,16.20
2018-09-29T14:15:26.157Z,16.30
2018-09-29T14:17:54.413Z,16.30
2018-09-29T14:20:22.617Z,16.30
2018-09-29T14:22:50.848Z,16.00
2018-09-29T14:25:19.112Z,15.90
2018-09-29T14:27:47.343Z,16.10
2018-09-29T14:30:15.616Z,16.40
2018-09-29T14:32:43.884Z,16.60
2018-09-29T14:35:12.153Z,16.60
2018-09-29T14:37:40.425Z,16.70
2018-09-29T14:40:08.720Z,16.00
2018-09-29T14:42:36.921Z,15.90
2018-09-29T14:45:05.199Z,16.20
2018-09-29T14:47:33.440Z,16.10
2018-09-29T14:50:01.703Z,16.10
2018-09-29T14:52:30.046Z,16.30
2018-09-29T14:54:58.499Z,16.60
2018-09-29T14:57:26.850Z,16.70
2018-09-29T14:59:55.603Z,16.60
2018-09-29T15:02:23.848Z,16.70
2018-09-29T15:04:52.328Z,16.60
2018-09-29T15:07:20.656Z,16.50
2018-09-29T15:09:48.965Z,16.50
2018-09-29T15:12:17.208Z,16.60
2018-09-29T15:14:45.502Z,16.70
2018-09-29T15:17:13.779Z,16.70
2018-09-29T15:19:42.206Z,16.70
2018-09-29T15:22:10.445Z,16.70
2018-09-29T15:24:38.828Z,16.60
2018-09-29T15:27:07.105Z,16.50
2018-09-29T15:29:35.353Z,16.50
2018-09-29T15:32:03.639Z,16.30
2018-09-29T15:34:31.849Z,16.20
2018-09-29T15:37:00.108Z,16.20
2018-09-29T15:39:28.337Z,16.20
2018-09-29T15:41:56.653Z,16.20
2018-09-29T15:44:24.978Z,16.20
2018-09-29T15:46:53.218Z,16.20
2018-09-29T15:49:21.414Z,16.20
2018-09-29T15:51:49.715Z,16.00
2018-09-29T15:54:18.120Z,15.90
2018-09-29T15:56:46.503Z,15.90
2018-09-29T15:59:15.000Z,15.90
2018-09-29T16:01:43.200Z,15.80
2018-09-29T16:04:11.470Z,15.80
2018-09-29T16:06:39.829Z,15.90
2018-09-29T16:09:09.626Z,15.80
2018-09-29T16:11:38.748Z,15.80
2018-09-29T16:14:06.997Z,15.90
2018-09-29T16:16:35.641Z,16.10
2018-09-29T16:19:03.901Z,15.80
2018-09-29T16:21:32.223Z,15.80
2018-09-29T16:24:00.608Z,15.90
2018-09-29T16:26:28.863Z,15.90
2018-09-29T16:29:03.440Z,15.90
2018-09-29T16:31:34.804Z,15.80
2018-09-29T16:34:03.051Z,15.70
2018-09-29T16:36:31.276Z,15.70
2018-09-29T16:38:59.525Z,15.50
2018-09-29T16:41:27.776Z,15.40
2018-09-29T16:43:56.012Z,15.40
2018-09-29T16:46:24.218Z,15.30
2018-09-29T16:48:52.461Z,15.10
2018-09-29T16:51:20.668Z,15.00
2018-09-29T16:53:49.003Z,14.90
2018-09-29T16:56:17.250Z,14.70
2018-09-29T16:58:45.464Z,14.70
2018-09-29T17:01:13.693Z,14.60
2018-09-29T17:03:41.984Z,14.40
2018-09-29T17:06:10.165Z,14.20
2018-09-29T17:08:38.394Z,14.10
2018-09-29T17:11:06.833Z,14.00
2018-09-29T17:13:35.000Z,13.80
2018-09-29T17:16:03.900Z,13.70
2018-09-29T17:18:32.104Z,13.60
2018-09-29T17:21:00.395Z,13.50
2018-09-29T17:23:28.745Z,13.40
2018-09-29T17:25:56.953Z,13.40
2018-09-29T17:28:25.356Z,13.20
2018-09-29T17:30:53.597Z,13.10
2018-09-29T17:33:21.838Z,13.10
2018-09-29T17:35:50.262Z,13.10
2018-09-29T17:38:18.481Z,13.00
2018-09-29T17:40:46.754Z,12.80
2018-09-29T17:43:14.974Z,12.70
2018-09-29T17:45:43.233Z,12.70
2018-09-29T17:48:12.794Z,12.50
2018-09-29T17:50:41.036Z,12.40
2018-09-29T17:53:09.344Z,12.30
2018-09-29T17:55:37.676Z,12.20
2018-09-29T17:58:05.937Z,12.10
2018-09-29T18:00:34.220Z,12.00
2018-09-29T18:03:02.658Z,11.90
2018-09-29T18:05:30.860Z,11.80
2018-09-29T18:07:59.894Z,11.80
2018-09-29T18:10:28.141Z,11.70
2018-09-29T18:12:56.406Z,11.70
2018-09-29T18:15:24.616Z,11.60
2018-09-29T18:17:52.830Z,11.60
2018-09-29T18:20:21.180Z,11.60
2018-09-29T18:22:49.830Z,11.40
2018-09-29T18:25:18.008Z,11.40
2018-09-29T18:27:46.242Z,11.30
2018-09-29T18:30:14.461Z,11.30
2018-09-29T18:32:42.839Z,11.20
2018-09-29T18:35:11.600Z,11.20
2018-09-29T18:37:40.225Z,11.10
2018-09-29T18:40:08.952Z,11.00
2018-09-29T18:42:37.561Z,10.90
2018-09-29T18:45:05.772Z,10.90
2018-09-29T18:47:34.060Z,10.90
2018-09-29T18:50:02.692Z,10.70
2018-09-29T18:52:31.352Z,10.60
2018-09-29T18:54:59.660Z,10.60
2018-09-29T18:57:27.948Z,10.60
2018-09-29T18:59:56.841Z,10.50
2018-09-29T19:02:25.175Z,10.50
2018-09-29T19:04:54.336Z,10.50
2018-09-29T19:07:22.752Z,10.50
2018-09-29T19:09:50.933Z,10.40
2018-09-29T19:12:19.154Z,10.30
2018-09-29T19:14:47.450Z,10.30
2018-09-29T19:17:15.719Z,10.30
2018-09-29T19:19:44.449Z,10.20
2018-09-29T19:22:13.019Z,10.10
2018-09-29T19:24:41.361Z,10.10
2018-09-29T19:27:09.547Z,10.10
2018-09-29T19:29:37.803Z,10.00
2018-09-29T19:32:06.132Z,9.90
2018-09-29T19:34:34.365Z,9.90
2018-09-29T19:37:02.781Z,9.90
2018-09-29T19:39:31.532Z,9.80
2018-09-29T19:42:00.656Z,9.90
2018-09-29T19:44:28.897Z,9.90
2018-09-29T19:46:57.126Z,9.80
2018-09-29T19:49:25.638Z,9.80
2018-09-29T19:51:53.857Z,9.80
2018-09-29T19:54:22.028Z,9.90
2018-09-29T19:56:50.300Z,9.80
2018-09-29T19:59:18.985Z,9.80
2018-09-29T20:01:47.248Z,9.70
2018-09-29T20:04:15.453Z,9.70
2018-09-29T20:06:43.781Z,9.60
2018-09-29T20:09:12.064Z,9.60
2018-09-29T20:11:40.863Z,9.50
2018-09-29T20:14:09.270Z,9.50
2018-09-29T20:16:37.531Z,9.40
2018-09-29T20:19:06.001Z,9.40
2018-09-29T20:21:34.254Z,9.40
2018-09-29T20:24:02.411Z,9.30
2018-09-29T20:26:30.972Z,9.30
2018-09-29T20:28:59.696Z,9.40
2018-09-29T20:31:28.601Z,9.40
2018-09-29T20:33:56.785Z,9.40
2018-09-29T20:36:25.065Z,9.40
2018-09-29T20:38:53.364Z,9.30
2018-09-29T20:41:21.591Z,9.40
2018-09-29T20:43:49.832Z,9.30
2018-09-29T20:46:18.053Z,9.30
2018-09-29T20:48:46.249Z,9.20
2018-09-29T20:51:14.555Z,9.10
2018-09-29T20:53:42.914Z,9.00
2018-09-29T20:56:11.344Z,9.00
2018-09-29T20:58:39.544Z,9.00
2018-09-29T21:01:07.742Z,9.00
2018-09-29T21:03:36.022Z,9.00
2018-09-29T21:06:04.261Z,9.00
2018-09-29T21:08:32.432Z,9.00
2018-09-29T21:11:00.648Z,8.90
2018-09-29T21:13:29.023Z,8.90
2018-09-29T21:15:57.201Z,8.90
2018-09-29T21:18:25.415Z,8.80
2018-09-29T21:20:53.613Z,8.80
2018-09-29T21:23:21.824Z,8.70
2018-09-29T21:25:50.076Z,8.80
2018-09-29T21:28:18.397Z,8.80
2018-09-29T21:30:46.561Z,8.80
2018-09-29T21:33:14.821Z,8.80
2018-09-29T21:35:43.121Z,8.80
2018-09-29T21:38:11.482Z,8.80
2018-09-29T21:40:39.719Z,8.80
2018-09-29T21:43:07.925Z,8.70
2018-09-29T21:45:36.207Z,8.70
2018-09-29T21:48:04.516Z,8.70
2018-09-29T21:50:32.744Z,8.70
2018-09-29T21:53:01.082Z,8.70
2018-09-29T21:55:29.295Z,8.70
2018-09-29T21:57:57.646Z,8.60
2018-09-29T22:00:31.254Z,8.50
2018-09-29T22:02:59.597Z,8.70
2018-09-29T22:05:27.717Z,8.70
2018-09-29T22:07:56.136Z,8.80
2018-09-29T22:10:24.373Z,8.70
2018-09-29T22:12:52.773Z,8.60
2018-09-29T22:15:21.051Z,8.60
2018-09-29T22:17:49.253Z,8.60
2018-09-29T22:20:17.456Z,8.60
2018-09-29T22:22:45.692Z,8.60
2018-09-29T22:25:13.890Z,8.50
2018-09-29T22:27:42.168Z,8.50
2018-09-29T22:30:11.373Z,8.60
2018-09-29T22:32:39.588Z,8.50
2018-09-29T22:35:07.872Z,8.50
2018-09-29T22:37:36.118Z,8.40
2018-09-29T22:40:04.441Z,8.40
2018-09-29T22:42:32.610Z,8.40
2018-09-29T22:45:00.809Z,8.30
2018-09-29T22:47:29.072Z,8.30
2018-09-29T22:49:57.338Z,8.30
2018-09-29T22:52:25.526Z,8.20
2018-09-29T22:54:54.497Z,8.20
2018-09-29T22:57:22.922Z,8.20
2018-09-29T22:59:51.119Z,8.20
2018-09-29T23:02:19.364Z,8.20
2018-09-29T23:04:47.749Z,8.20
2018-09-29T23:07:15.933Z,8.10
2018-09-29T23:09:44.174Z,8.10
2018-09-29T23:12:18.785Z,8.10
2018-09-29T23:14:47.066Z,8.10
2018-09-29T23:17:15.336Z,8.00
2018-09-29T23:19:43.845Z,8.10
2018-09-29T23:22:12.021Z,8.10
2018-09-29T23:24:40.305Z,8.10
2018-09-29T23:27:08.587Z,8.10
2018-09-29T23:29:36.850Z,8.20
2018-09-29T23:32:05.178Z,8.10
2018-09-29T23:34:33.376Z,8.00
2018-09-29T23:37:01.588Z,8.00
2018-09-29T23:39:29.762Z,8.00
2018-09-29T23:41:58.008Z,8.00
2018-09-29T23:44:26.212Z,8.00
2018-09-29T23:46:54.497Z,7.90
2018-09-29T23:49:22.734Z,7.90
2018-09-29T23:51:50.949Z,7.90
2018-09-29T23:54:19.159Z,7.80
2018-09-29T23:56:47.389Z,7.70
2018-09-29T23:59:15.562Z,7.70
